sensor_id;sensor_type;location;lat;lon;timestamp;P1;durP1;ratioP1;P2;durP2;ratioP2
16624;SDS011;8426;48.496;9.098;2023-02-01T00:02:38;3.50;;;1.53;;
16624;SDS011;8426;48.496;9.098;2023-02-01T00:07:42;4.07;;;1.63;;
16624;SDS011;8426;48.496;9.098;2023-02-01T00:12:55;3.13;;;1.40;;
16624;SDS011;8426;48.496;9.098;2023-02-01T00:17:59;3.40;;;1.70;;
16624;SDS011;8426;48.496;9.098;2023-02-01T00:23:03;2.33;;;1.53;;
16624;SDS011;8426;48.496;9.098;2023-02-01T00:28:13;2.73;;;1.57;;
16624;SDS011;8426;48.496;9.098;2023-02-01T00:33:19;4.90;;;1.70;;
16624;SDS011;8426;48.496;9.098;2023-02-01T00:38:29;2.37;;;1.63;;
16624;SDS011;8426;48.496;9.098;2023-02-01T00:43:33;2.50;;;1.30;;
16624;SDS011;8426;48.496;9.098;2023-02-01T00:48:39;1.87;;;1.27;;
16624;SDS011;8426;48.496;9.098;2023-02-01T00:53:43;2.63;;;1.30;;
16624;SDS011;8426;48.496;9.098;2023-02-01T00:58:47;1.60;;;1.00;;
16624;SDS011;8426;48.496;9.098;2023-02-01T01:03:52;2.75;;;1.10;;
16624;SDS011;8426;48.496;9.098;2023-02-01T01:08:58;3.47;;;1.30;;
16624;SDS011;8426;48.496;9.098;2023-02-01T01:14:03;1.87;;;1.00;;
16624;SDS011;8426;48.496;9.098;2023-02-01T01:19:09;1.70;;;1.10;;
16624;SDS011;8426;48.496;9.098;2023-02-01T01:24:13;2.17;;;1.30;;
16624;SDS011;8426;48.496;9.098;2023-02-01T01:29:18;2.40;;;0.97;;
16624;SDS011;8426;48.496;9.098;2023-02-01T01:34:25;2.00;;;1.20;;
16624;SDS011;8426;48.496;9.098;2023-02-01T01:39:29;1.53;;;1.30;;
16624;SDS011;8426;48.496;9.098;2023-02-01T01:50:05;2.03;;;1.23;;
16624;SDS011;8426;48.496;9.098;2023-02-01T01:55:13;5.85;;;1.80;;
16624;SDS011;8426;48.496;9.098;2023-02-01T02:00:17;2.27;;;0.97;;
16624;SDS011;8426;48.496;9.098;2023-02-01T02:05:25;2.28;;;1.25;;
16624;SDS011;8426;48.496;9.098;2023-02-01T02:10:32;2.28;;;1.20;;
16624;SDS011;8426;48.496;9.098;2023-02-01T02:16:14;1.30;;;1.17;;
16624;SDS011;8426;48.496;9.098;2023-02-01T02:21:54;2.25;;;1.45;;
16624;SDS011;8426;48.496;9.098;2023-02-01T02:27:19;2.47;;;1.23;;
16624;SDS011;8426;48.496;9.098;2023-02-01T02:38:23;3.03;;;1.07;;
16624;SDS011;8426;48.496;9.098;2023-02-01T02:43:35;4.93;;;1.20;;
16624;SDS011;8426;48.496;9.098;2023-02-01T02:49:08;2.90;;;1.40;;
16624;SDS011;8426;48.496;9.098;2023-02-01T02:54:22;2.05;;;0.90;;
16624;SDS011;8426;48.496;9.098;2023-02-01T02:59:46;1.40;;;1.00;;
16624;SDS011;8426;48.496;9.098;2023-02-01T03:05:08;1.83;;;1.20;;
16624;SDS011;8426;48.496;9.098;2023-02-01T03:10:16;1.40;;;1.00;;
16624;SDS011;8426;48.496;9.098;2023-02-01T03:15:27;1.80;;;1.20;;
16624;SDS011;8426;48.496;9.098;2023-02-01T03:20:34;1.67;;;1.27;;
16624;SDS011;8426;48.496;9.098;2023-02-01T03:25:41;2.57;;;1.10;;
16624;SDS011;8426;48.496;9.098;2023-02-01T03:35:55;1.47;;;1.10;;
16624;SDS011;8426;48.496;9.098;2023-02-01T03:41:06;1.17;;;1.07;;
16624;SDS011;8426;48.496;9.098;2023-02-01T03:46:16;4.88;;;1.40;;
16624;SDS011;8426;48.496;9.098;2023-02-01T03:51:26;1.70;;;1.30;;
16624;SDS011;8426;48.496;9.098;2023-02-01T03:56:32;2.20;;;1.20;;
16624;SDS011;8426;48.496;9.098;2023-02-01T04:01:40;1.90;;;1.40;;
16624;SDS011;8426;48.496;9.098;2023-02-01T04:06:44;3.27;;;1.43;;
16624;SDS011;8426;48.496;9.098;2023-02-01T04:11:49;1.83;;;1.30;;
16624;SDS011;8426;48.496;9.098;2023-02-01T04:16:56;1.70;;;1.37;;
16624;SDS011;8426;48.496;9.098;2023-02-01T04:21:59;2.93;;;1.70;;
16624;SDS011;8426;48.496;9.098;2023-02-01T04:27:04;2.23;;;1.37;;
16624;SDS011;8426;48.496;9.098;2023-02-01T04:32:07;2.05;;;1.42;;
16624;SDS011;8426;48.496;9.098;2023-02-01T04:37:17;2.03;;;1.40;;
16624;SDS011;8426;48.496;9.098;2023-02-01T04:42:22;2.13;;;1.40;;
16624;SDS011;8426;48.496;9.098;2023-02-01T04:47:25;3.03;;;1.60;;
16624;SDS011;8426;48.496;9.098;2023-02-01T04:52:30;2.00;;;1.40;;
16624;SDS011;8426;48.496;9.098;2023-02-01T04:57:34;2.17;;;1.20;;
16624;SDS011;8426;48.496;9.098;2023-02-01T05:02:40;2.33;;;1.50;;
16624;SDS011;8426;48.496;9.098;2023-02-01T05:07:46;2.17;;;1.67;;
16624;SDS011;8426;48.496;9.098;2023-02-01T05:12:51;1.40;;;1.10;;
16624;SDS011;8426;48.496;9.098;2023-02-01T05:18:11;2.23;;;1.20;;
16624;SDS011;8426;48.496;9.098;2023-02-01T05:23:15;1.63;;;1.03;;
16624;SDS011;8426;48.496;9.098;2023-02-01T05:28:20;2.27;;;1.00;;
16624;SDS011;8426;48.496;9.098;2023-02-01T05:33:30;3.10;;;1.03;;
16624;SDS011;8426;48.496;9.098;2023-02-01T05:38:35;1.43;;;1.10;;
16624;SDS011;8426;48.496;9.098;2023-02-01T05:43:40;1.40;;;1.10;;
16624;SDS011;8426;48.496;9.098;2023-02-01T05:48:51;1.77;;;1.17;;
16624;SDS011;8426;48.496;9.098;2023-02-01T05:53:56;1.57;;;0.90;;
16624;SDS011;8426;48.496;9.098;2023-02-01T05:59:02;2.23;;;1.20;;
16624;SDS011;8426;48.496;9.098;2023-02-01T06:04:07;1.17;;;0.90;;
16624;SDS011;8426;48.496;9.098;2023-02-01T06:09:17;2.40;;;1.10;;
16624;SDS011;8426;48.496;9.098;2023-02-01T06:19:34;1.57;;;1.00;;
16624;SDS011;8426;48.496;9.098;2023-02-01T06:24:38;3.80;;;1.03;;
16624;SDS011;8426;48.496;9.098;2023-02-01T06:29:51;4.37;;;1.10;;
16624;SDS011;8426;48.496;9.098;2023-02-01T06:34:56;1.75;;;1.20;;
16624;SDS011;8426;48.496;9.098;2023-02-01T06:40:00;4.63;;;1.13;;
16624;SDS011;8426;48.496;9.098;2023-02-01T06:45:05;2.00;;;1.00;;
16624;SDS011;8426;48.496;9.098;2023-02-01T06:50:10;2.30;;;1.07;;
16624;SDS011;8426;48.496;9.098;2023-02-01T06:55:13;4.13;;;0.83;;
16624;SDS011;8426;48.496;9.098;2023-02-01T07:00:19;2.38;;;1.60;;
16624;SDS011;8426;48.496;9.098;2023-02-01T07:05:23;1.33;;;1.00;;
16624;SDS011;8426;48.496;9.098;2023-02-01T07:10:26;1.85;;;1.10;;
16624;SDS011;8426;48.496;9.098;2023-02-01T07:15:31;2.73;;;1.37;;
16624;SDS011;8426;48.496;9.098;2023-02-01T07:20:35;4.53;;;1.33;;
16624;SDS011;8426;48.496;9.098;2023-02-01T07:25:38;2.90;;;1.40;;
16624;SDS011;8426;48.496;9.098;2023-02-01T07:30:43;1.87;;;1.20;;
16624;SDS011;8426;48.496;9.098;2023-02-01T07:35:52;3.20;;;1.30;;
16624;SDS011;8426;48.496;9.098;2023-02-01T07:40:58;2.20;;;1.00;;
16624;SDS011;8426;48.496;9.098;2023-02-01T07:46:03;1.33;;;1.03;;
16624;SDS011;8426;48.496;9.098;2023-02-01T07:51:09;1.30;;;0.93;;
16624;SDS011;8426;48.496;9.098;2023-02-01T07:56:14;2.17;;;1.30;;
16624;SDS011;8426;48.496;9.098;2023-02-01T08:01:21;3.28;;;1.30;;
16624;SDS011;8426;48.496;9.098;2023-02-01T08:06:27;1.40;;;1.00;;
16624;SDS011;8426;48.496;9.098;2023-02-01T08:11:32;3.53;;;1.23;;
16624;SDS011;8426;48.496;9.098;2023-02-01T08:16:36;2.27;;;1.30;;
16624;SDS011;8426;48.496;9.098;2023-02-01T08:21:40;3.80;;;1.40;;
16624;SDS011;8426;48.496;9.098;2023-02-01T08:26:43;4.53;;;1.42;;
16624;SDS011;8426;48.496;9.098;2023-02-01T08:31:48;1.50;;;1.10;;
16624;SDS011;8426;48.496;9.098;2023-02-01T08:36:52;3.43;;;1.07;;
16624;SDS011;8426;48.496;9.098;2023-02-01T08:41:59;1.40;;;1.00;;
16624;SDS011;8426;48.496;9.098;2023-02-01T08:47:21;3.30;;;1.38;;
16624;SDS011;8426;48.496;9.098;2023-02-01T08:52:25;3.97;;;1.27;;
16624;SDS011;8426;48.496;9.098;2023-02-01T08:57:28;2.35;;;1.10;;
16624;SDS011;8426;48.496;9.098;2023-02-01T09:02:33;3.03;;;1.05;;
16624;SDS011;8426;48.496;9.098;2023-02-01T09:07:37;2.05;;;0.93;;
16624;SDS011;8426;48.496;9.098;2023-02-01T09:12:41;2.50;;;0.98;;
16624;SDS011;8426;48.496;9.098;2023-02-01T09:17:45;2.30;;;1.00;;
16624;SDS011;8426;48.496;9.098;2023-02-01T09:22:49;3.13;;;0.90;;
16624;SDS011;8426;48.496;9.098;2023-02-01T09:27:53;3.22;;;1.20;;
16624;SDS011;8426;48.496;9.098;2023-02-01T09:32:58;2.30;;;1.13;;
16624;SDS011;8426;48.496;9.098;2023-02-01T09:38:01;4.32;;;1.42;;
16624;SDS011;8426;48.496;9.098;2023-02-01T09:43:11;6.10;;;1.17;;
16624;SDS011;8426;48.496;9.098;2023-02-01T09:48:29;2.35;;;1.23;;
16624;SDS011;8426;48.496;9.098;2023-02-01T09:53:36;1.73;;;1.15;;
16624;SDS011;8426;48.496;9.098;2023-02-01T09:58:44;5.38;;;1.33;;
16624;SDS011;8426;48.496;9.098;2023-02-01T10:03:55;3.50;;;1.10;;
16624;SDS011;8426;48.496;9.098;2023-02-01T10:09:07;6.88;;;1.30;;
16624;SDS011;8426;48.496;9.098;2023-02-01T10:14:26;3.42;;;1.23;;
16624;SDS011;8426;48.496;9.098;2023-02-01T10:19:48;3.75;;;1.02;;
16624;SDS011;8426;48.496;9.098;2023-02-01T10:25:03;5.32;;;1.50;;
16624;SDS011;8426;48.496;9.098;2023-02-01T10:30:15;8.60;;;1.40;;
16624;SDS011;8426;48.496;9.098;2023-02-01T10:35:24;7.75;;;1.90;;
16624;SDS011;8426;48.496;9.098;2023-02-01T10:40:32;8.68;;;1.73;;
16624;SDS011;8426;48.496;9.098;2023-02-01T10:45:36;5.50;;;1.65;;
16624;SDS011;8426;48.496;9.098;2023-02-01T10:50:46;7.07;;;1.77;;
16624;SDS011;8426;48.496;9.098;2023-02-01T10:55:54;6.40;;;1.52;;
16624;SDS011;8426;48.496;9.098;2023-02-01T11:00:58;7.93;;;1.50;;
16624;SDS011;8426;48.496;9.098;2023-02-01T11:06:10;5.30;;;1.55;;
16624;SDS011;8426;48.496;9.098;2023-02-01T11:11:20;5.40;;;1.45;;
16624;SDS011;8426;48.496;9.098;2023-02-01T11:16:33;10.65;;;1.50;;
16624;SDS011;8426;48.496;9.098;2023-02-01T11:21:39;8.55;;;1.85;;
16624;SDS011;8426;48.496;9.098;2023-02-01T11:26:46;10.02;;;2.00;;
16624;SDS011;8426;48.496;9.098;2023-02-01T11:31:52;7.25;;;1.52;;
16624;SDS011;8426;48.496;9.098;2023-02-01T11:36:58;7.47;;;1.65;;
16624;SDS011;8426;48.496;9.098;2023-02-01T11:42:05;5.30;;;1.33;;
16624;SDS011;8426;48.496;9.098;2023-02-01T11:47:25;5.82;;;1.63;;
16624;SDS011;8426;48.496;9.098;2023-02-01T11:52:37;10.02;;;1.70;;
16624;SDS011;8426;48.496;9.098;2023-02-01T11:58:04;4.90;;;1.13;;
16624;SDS011;8426;48.496;9.098;2023-02-01T12:08:56;9.27;;;1.30;;
16624;SDS011;8426;48.496;9.098;2023-02-01T12:14:12;3.72;;;1.17;;
16624;SDS011;8426;48.496;9.098;2023-02-01T12:19:31;6.38;;;1.30;;
16624;SDS011;8426;48.496;9.098;2023-02-01T12:24:56;8.93;;;1.70;;
16624;SDS011;8426;48.496;9.098;2023-02-01T12:30:26;4.93;;;1.30;;
16624;SDS011;8426;48.496;9.098;2023-02-01T12:35:49;6.97;;;1.48;;
16624;SDS011;8426;48.496;9.098;2023-02-01T12:41:06;7.90;;;1.48;;
16624;SDS011;8426;48.496;9.098;2023-02-01T12:46:21;7.60;;;1.55;;
16624;SDS011;8426;48.496;9.098;2023-02-01T12:51:33;5.97;;;1.27;;
16624;SDS011;8426;48.496;9.098;2023-02-01T12:56:40;7.88;;;1.60;;
16624;SDS011;8426;48.496;9.098;2023-02-01T13:01:48;8.52;;;1.55;;
16624;SDS011;8426;48.496;9.098;2023-02-01T13:06:59;10.30;;;1.42;;
16624;SDS011;8426;48.496;9.098;2023-02-01T13:12:11;6.82;;;1.05;;
16624;SDS011;8426;48.496;9.098;2023-02-01T13:17:18;9.05;;;1.58;;
16624;SDS011;8426;48.496;9.098;2023-02-01T13:22:27;4.63;;;1.40;;
16624;SDS011;8426;48.496;9.098;2023-02-01T13:27:35;8.55;;;1.65;;
16624;SDS011;8426;48.496;9.098;2023-02-01T13:32:49;9.13;;;1.60;;
16624;SDS011;8426;48.496;9.098;2023-02-01T13:44:10;6.35;;;1.80;;
16624;SDS011;8426;48.496;9.098;2023-02-01T13:49:18;6.10;;;1.58;;
16624;SDS011;8426;48.496;9.098;2023-02-01T13:54:26;7.28;;;1.77;;
16624;SDS011;8426;48.496;9.098;2023-02-01T14:05:08;9.13;;;1.65;;
16624;SDS011;8426;48.496;9.098;2023-02-01T14:21:19;6.22;;;1.60;;
16624;SDS011;8426;48.496;9.098;2023-02-01T14:26:28;6.60;;;1.77;;
16624;SDS011;8426;48.496;9.098;2023-02-01T14:32:00;6.70;;;1.50;;
16624;SDS011;8426;48.496;9.098;2023-02-01T14:37:09;6.90;;;1.52;;
16624;SDS011;8426;48.496;9.098;2023-02-01T14:42:18;5.65;;;1.50;;
16624;SDS011;8426;48.496;9.098;2023-02-01T14:47:30;7.47;;;1.65;;
16624;SDS011;8426;48.496;9.098;2023-02-01T14:52:36;8.55;;;1.50;;
16624;SDS011;8426;48.496;9.098;2023-02-01T14:57:44;7.60;;;1.58;;
16624;SDS011;8426;48.496;9.098;2023-02-01T15:02:54;12.23;;;1.52;;
16624;SDS011;8426;48.496;9.098;2023-02-01T15:08:05;9.80;;;1.52;;
16624;SDS011;8426;48.496;9.098;2023-02-01T15:13:20;10.13;;;1.75;;
16624;SDS011;8426;48.496;9.098;2023-02-01T15:18:28;10.55;;;1.90;;
16624;SDS011;8426;48.496;9.098;2023-02-01T15:23:31;8.32;;;1.88;;
16624;SDS011;8426;48.496;9.098;2023-02-01T15:28:36;6.82;;;1.60;;
16624;SDS011;8426;48.496;9.098;2023-02-01T15:33:41;3.97;;;1.27;;
16624;SDS011;8426;48.496;9.098;2023-02-01T15:39:12;13.25;;;2.15;;
16624;SDS011;8426;48.496;9.098;2023-02-01T15:44:28;7.22;;;1.75;;
16624;SDS011;8426;48.496;9.098;2023-02-01T15:49:38;7.38;;;1.73;;
16624;SDS011;8426;48.496;9.098;2023-02-01T15:54:45;5.30;;;2.00;;
16624;SDS011;8426;48.496;9.098;2023-02-01T15:59:53;11.05;;;1.80;;
16624;SDS011;8426;48.496;9.098;2023-02-01T16:04:59;9.35;;;1.90;;
16624;SDS011;8426;48.496;9.098;2023-02-01T16:10:19;9.45;;;1.73;;
16624;SDS011;8426;48.496;9.098;2023-02-01T16:15:27;8.02;;;1.77;;
16624;SDS011;8426;48.496;9.098;2023-02-01T16:20:33;10.45;;;1.45;;
16624;SDS011;8426;48.496;9.098;2023-02-01T16:25:40;7.60;;;2.13;;
16624;SDS011;8426;48.496;9.098;2023-02-01T16:30:43;6.85;;;1.77;;
16624;SDS011;8426;48.496;9.098;2023-02-01T16:35:48;11.17;;;1.60;;
16624;SDS011;8426;48.496;9.098;2023-02-01T16:40:52;6.40;;;1.70;;
16624;SDS011;8426;48.496;9.098;2023-02-01T16:45:59;5.82;;;1.70;;
16624;SDS011;8426;48.496;9.098;2023-02-01T16:51:09;9.38;;;1.80;;
16624;SDS011;8426;48.496;9.098;2023-02-01T16:56:15;11.30;;;2.37;;
16624;SDS011;8426;48.496;9.098;2023-02-01T17:01:26;8.98;;;1.73;;
16624;SDS011;8426;48.496;9.098;2023-02-01T17:06:32;17.17;;;2.30;;
16624;SDS011;8426;48.496;9.098;2023-02-01T17:11:38;10.65;;;1.73;;
16624;SDS011;8426;48.496;9.098;2023-02-01T17:16:41;9.70;;;1.85;;
16624;SDS011;8426;48.496;9.098;2023-02-01T17:21:48;7.30;;;1.60;;
16624;SDS011;8426;48.496;9.098;2023-02-01T17:26:55;4.07;;;1.50;;
16624;SDS011;8426;48.496;9.098;2023-02-01T17:32:17;7.63;;;2.25;;
16624;SDS011;8426;48.496;9.098;2023-02-01T17:37:24;11.50;;;1.85;;
16624;SDS011;8426;48.496;9.098;2023-02-01T17:42:31;7.20;;;1.40;;
16624;SDS011;8426;48.496;9.098;2023-02-01T17:47:58;8.33;;;2.00;;
16624;SDS011;8426;48.496;9.098;2023-02-01T17:53:14;4.30;;;1.75;;
16624;SDS011;8426;48.496;9.098;2023-02-01T17:58:20;7.57;;;1.93;;
16624;SDS011;8426;48.496;9.098;2023-02-01T18:03:29;12.07;;;1.92;;
16624;SDS011;8426;48.496;9.098;2023-02-01T18:08:46;11.87;;;2.23;;
16624;SDS011;8426;48.496;9.098;2023-02-01T18:13:55;11.10;;;1.55;;
16624;SDS011;8426;48.496;9.098;2023-02-01T18:19:02;8.70;;;2.67;;
16624;SDS011;8426;48.496;9.098;2023-02-01T18:24:18;13.95;;;2.15;;
16624;SDS011;8426;48.496;9.098;2023-02-01T18:29:31;12.07;;;2.30;;
16624;SDS011;8426;48.496;9.098;2023-02-01T18:40:33;11.60;;;1.60;;
16624;SDS011;8426;48.496;9.098;2023-02-01T18:45:47;10.17;;;1.83;;
16624;SDS011;8426;48.496;9.098;2023-02-01T18:50:50;10.20;;;1.90;;
16624;SDS011;8426;48.496;9.098;2023-02-01T18:56:15;6.78;;;1.83;;
16624;SDS011;8426;48.496;9.098;2023-02-01T19:06:31;7.23;;;1.50;;
16624;SDS011;8426;48.496;9.098;2023-02-01T19:11:39;4.40;;;1.50;;
16624;SDS011;8426;48.496;9.098;2023-02-01T19:16:49;7.70;;;1.48;;
16624;SDS011;8426;48.496;9.098;2023-02-01T19:21:56;11.23;;;1.63;;
16624;SDS011;8426;48.496;9.098;2023-02-01T19:27:02;4.68;;;1.33;;
16624;SDS011;8426;48.496;9.098;2023-02-01T19:32:12;5.05;;;1.60;;
16624;SDS011;8426;48.496;9.098;2023-02-01T19:37:31;6.25;;;1.60;;
16624;SDS011;8426;48.496;9.098;2023-02-01T19:42:48;8.95;;;1.40;;
16624;SDS011;8426;48.496;9.098;2023-02-01T19:48:06;13.52;;;1.98;;
16624;SDS011;8426;48.496;9.098;2023-02-01T19:53:16;10.37;;;1.67;;
16624;SDS011;8426;48.496;9.098;2023-02-01T20:03:52;7.50;;;1.23;;
16624;SDS011;8426;48.496;9.098;2023-02-01T20:08:57;7.27;;;1.33;;
16624;SDS011;8426;48.496;9.098;2023-02-01T20:14:03;13.60;;;2.00;;
16624;SDS011;8426;48.496;9.098;2023-02-01T20:19:12;7.00;;;1.63;;
16624;SDS011;8426;48.496;9.098;2023-02-01T20:24:17;7.13;;;1.50;;
16624;SDS011;8426;48.496;9.098;2023-02-01T20:29:31;7.53;;;1.30;;
16624;SDS011;8426;48.496;9.098;2023-02-01T20:34:51;4.87;;;1.40;;
16624;SDS011;8426;48.496;9.098;2023-02-01T20:39:58;6.38;;;1.42;;
16624;SDS011;8426;48.496;9.098;2023-02-01T20:45:07;12.27;;;1.93;;
16624;SDS011;8426;48.496;9.098;2023-02-01T20:55:45;9.90;;;1.88;;
16624;SDS011;8426;48.496;9.098;2023-02-01T21:00:51;7.68;;;1.92;;
16624;SDS011;8426;48.496;9.098;2023-02-01T21:06:07;11.53;;;1.40;;
16624;SDS011;8426;48.496;9.098;2023-02-01T21:11:21;9.52;;;1.83;;
16624;SDS011;8426;48.496;9.098;2023-02-01T21:16:26;9.35;;;1.92;;
16624;SDS011;8426;48.496;9.098;2023-02-01T21:21:53;13.38;;;1.50;;
16624;SDS011;8426;48.496;9.098;2023-02-01T21:27:12;11.43;;;2.47;;
16624;SDS011;8426;48.496;9.098;2023-02-01T21:32:19;7.00;;;1.55;;
16624;SDS011;8426;48.496;9.098;2023-02-01T21:37:38;6.75;;;1.60;;
16624;SDS011;8426;48.496;9.098;2023-02-01T21:42:41;8.98;;;2.00;;
16624;SDS011;8426;48.496;9.098;2023-02-01T21:47:47;13.70;;;2.28;;
16624;SDS011;8426;48.496;9.098;2023-02-01T21:52:57;8.10;;;2.00;;
16624;SDS011;8426;48.496;9.098;2023-02-01T22:03:37;16.33;;;2.37;;
16624;SDS011;8426;48.496;9.098;2023-02-01T22:08:43;11.00;;;2.03;;
16624;SDS011;8426;48.496;9.098;2023-02-01T22:13:56;10.25;;;2.08;;
16624;SDS011;8426;48.496;9.098;2023-02-01T22:19:01;8.83;;;1.97;;
16624;SDS011;8426;48.496;9.098;2023-02-01T22:24:12;10.53;;;1.87;;
16624;SDS011;8426;48.496;9.098;2023-02-01T22:29:18;10.60;;;2.60;;
16624;SDS011;8426;48.496;9.098;2023-02-01T22:34:23;8.60;;;1.93;;
16624;SDS011;8426;48.496;9.098;2023-02-01T22:39:26;9.67;;;1.90;;
16624;SDS011;8426;48.496;9.098;2023-02-01T22:44:37;12.37;;;1.77;;
16624;SDS011;8426;48.496;9.098;2023-02-01T22:49:58;5.35;;;2.13;;
16624;SDS011;8426;48.496;9.098;2023-02-01T22:55:04;9.17;;;2.20;;
16624;SDS011;8426;48.496;9.098;2023-02-01T23:05:24;8.97;;;1.90;;
16624;SDS011;8426;48.496;9.098;2023-02-01T23:10:29;9.20;;;1.67;;
16624;SDS011;8426;48.496;9.098;2023-02-01T23:15:33;11.57;;;1.90;;
16624;SDS011;8426;48.496;9.098;2023-02-01T23:20:51;10.10;;;2.43;;
16624;SDS011;8426;48.496;9.098;2023-02-01T23:26:11;11.37;;;2.00;;
16624;SDS011;8426;48.496;9.098;2023-02-01T23:31:15;11.60;;;2.33;;
16624;SDS011;8426;48.496;9.098;2023-02-01T23:36:21;7.10;;;1.97;;
16624;SDS011;8426;48.496;9.098;2023-02-01T23:41:27;8.77;;;2.00;;
16624;SDS011;8426;48.496;9.098;2023-02-01T23:46:38;4.87;;;1.60;;
16624;SDS011;8426;48.496;9.098;2023-02-01T23:56:54;9.27;;;1.67;;
